^^
Meteo Knjazevac Station Historical Data
Daily Summary for September 27, 2021 Units:  Both    English   Metric
Daily Weekly Monthly Yearly Custom
  High: Low: Average:
Temperature: 68.8 °F /  20.4 °C 54.1 °F /  12.3 °C 57.3 °F /  14.1 °C
Dew Point: 65.7 °F /  18.7 °C 52.3 °F /  11.3 °C 55.3 °F /  12.9 °C
Humidity: 99% 85% 93%
Wind Speed: 5mph /  8km/h - 0.9mph /  1.4km/h
Wind Gust: 8mph /  12.9km/h - -
Wind- - SSW
Pressure: 30.10 in /  1019.2 hPa 30.06 in /  1017.8 hPa -
Precipitation: 0.20 in /  5.08 mm    
Historical Graphs
 
 
Tabular Data for September 27, 2021
Time Temperature Dew Point Pressure Wind Wind Speed Wind Gust Humidity Rainfall Rate (Hourly) solar Conditions
00:00 58.6 °F /  14.8 °C 54.1 °F /  12.3 °C 30.09in /  1018.8hPa Calm   2mph /  3.2km/h 85% 0.00in /  0mm 0 W/m2
00:10 58.6 °F /  14.8 °C 54.1 °F /  12.3 °C 30.09in /  1018.8hPa Calm   2mph /  3.2km/h 85% 0.00in /  0mm 0 W/m2
00:20 57.9 °F /  14.4 °C 53.8 °F /  12.1 °C 30.09in /  1018.8hPa WNW 1mph /  1.6km/h 2mph /  3.2km/h 86% 0.00in /  0mm 0 W/m2
00:30 57.7 °F /  14.3 °C 53.6 °F /  12 °C 30.09in /  1018.8hPa WNW 1mph /  1.6km/h 3mph /  4.8km/h 86% 0.00in /  0mm 0 W/m2
00:40 57.6 °F /  14.2 °C 54 °F /  12.2 °C 30.08in /  1018.5hPa WNW 1mph /  1.6km/h 3mph /  4.8km/h 88% 0.00in /  0mm 0 W/m2
00:50 57.2 °F /  14 °C 53.7 °F /  12.1 °C 30.08in /  1018.5hPa SW 1mph /  1.6km/h 2mph /  3.2km/h 88% 0.00in /  0mm 0 W/m2
01:00 56.7 °F /  13.7 °C 53.5 °F /  11.9 °C 30.08in /  1018.5hPa West 1mph /  1.6km/h 4mph /  6.4km/h 89% 0.00in /  0mm 0 W/m2
01:10 56.7 °F /  13.7 °C 53.5 °F /  11.9 °C 30.08in /  1018.5hPa WNW 2mph /  3.2km/h 4mph /  6.4km/h 89% 0.00in /  0mm 0 W/m2
01:20 56.7 °F /  13.7 °C 53.8 °F /  12.1 °C 30.08in /  1018.5hPa WNW 2mph /  3.2km/h 4mph /  6.4km/h 90% 0.00in /  0mm 0 W/m2
01:30 56.4 °F /  13.6 °C 53.5 °F /  11.9 °C 30.08in /  1018.5hPa West 1mph /  1.6km/h 4mph /  6.4km/h 90% 0.00in /  0mm 0 W/m2
01:40 56.3 °F /  13.5 °C 53.4 °F /  11.9 °C 30.09in /  1018.8hPa WNW 2mph /  3.2km/h 3mph /  4.8km/h 90% 0.00in /  0mm 0 W/m2
01:50 56.1 °F /  13.4 °C 53.2 °F /  11.8 °C 30.08in /  1018.5hPa North 1mph /  1.6km/h 3mph /  4.8km/h 90% 0.00in /  0mm 0 W/m2
02:00 55.9 °F /  13.3 °C 53 °F /  11.7 °C 30.08in /  1018.5hPa West 1mph /  1.6km/h 3mph /  4.8km/h 90% 0.00in /  0mm 0 W/m2
02:10 55.8 °F /  13.2 °C 52.9 °F /  11.6 °C 30.08in /  1018.5hPa NW 1mph /  1.6km/h 3mph /  4.8km/h 90% 0.00in /  0mm 0 W/m2
02:20 55.4 °F /  13 °C 52.5 °F /  11.4 °C 30.08in /  1018.5hPa West 1mph /  1.6km/h 2mph /  3.2km/h 90% 0.00in /  0mm 0 W/m2
02:30 55.2 °F /  12.9 °C 52.6 °F /  11.4 °C 30.08in /  1018.5hPa WNW 1mph /  1.6km/h 2mph /  3.2km/h 91% 0.00in /  0mm 0 W/m2
02:40 55.2 °F /  12.9 °C 52.6 °F /  11.4 °C 30.08in /  1018.5hPa WNW 2mph /  3.2km/h 4mph /  6.4km/h 91% 0.00in /  0mm 0 W/m2
02:50 55.2 °F /  12.9 °C 52.6 °F /  11.4 °C 30.07in /  1018.2hPa Calm   4mph /  6.4km/h 91% 0.00in /  0mm 0 W/m2
03:00 55 °F /  12.8 °C 52.5 °F /  11.4 °C 30.08in /  1018.5hPa Calm   2mph /  3.2km/h 91% 0.00in /  0mm 0 W/m2
03:10 54.9 °F /  12.7 °C 52.3 °F /  11.3 °C 30.07in /  1018.2hPa Calm   2mph /  3.2km/h 91% 0.00in /  0mm 0 W/m2
03:20 54.5 °F /  12.5 °C 52.5 °F /  11.4 °C 30.08in /  1018.5hPa SW 1mph /  1.6km/h 3mph /  4.8km/h 93% 0.00in /  0mm 0 W/m2
03:30 54.5 °F /  12.5 °C 52.5 °F /  11.4 °C 30.08in /  1018.5hPa West 1mph /  1.6km/h 2mph /  3.2km/h 93% 0.00in /  0mm 0 W/m2
03:40 54.7 °F /  12.6 °C 52.7 °F /  11.5 °C 30.07in /  1018.2hPa Calm   2mph /  3.2km/h 93% 0.00in /  0mm 0 W/m2
03:50 54.7 °F /  12.6 °C 53 °F /  11.7 °C 30.07in /  1018.2hPa SSW 1mph /  1.6km/h 2mph /  3.2km/h 94% 0.00in /  0mm 0 W/m2
04:00 54.9 °F /  12.7 °C 53.2 °F /  11.8 °C 30.07in /  1018.2hPa Calm   2mph /  3.2km/h 94% 0.00in /  0mm 0 W/m2
04:10 55 °F /  12.8 °C 53.1 °F /  11.7 °C 30.07in /  1018.2hPa Calm     93% 0.00in /  0mm 0 W/m2
04:20 55 °F /  12.8 °C 53.1 °F /  11.7 °C 30.07in /  1018.2hPa NW 1mph /  1.6km/h 2mph /  3.2km/h 93% 0.00in /  0mm 0 W/m2
04:30 54.9 °F /  12.7 °C 53.2 °F /  11.8 °C 30.07in /  1018.2hPa Calm   2mph /  3.2km/h 94% 0.00in /  0mm 0 W/m2
04:40 54.9 °F /  12.7 °C 53.2 °F /  11.8 °C 30.07in /  1018.2hPa Calm   2mph /  3.2km/h 94% 0.00in /  0mm 0 W/m2
04:50 54.7 °F /  12.6 °C 53 °F /  11.7 °C 30.08in /  1018.5hPa Calm   2mph /  3.2km/h 94% 0.00in /  0mm 0 W/m2
05:00 54.5 °F /  12.5 °C 52.8 °F /  11.6 °C 30.08in /  1018.5hPa Calm   1mph /  1.6km/h 94% 0.00in /  0mm 3 W/m2
05:10 54.5 °F /  12.5 °C 52.8 °F /  11.6 °C 30.08in /  1018.5hPa Calm     94% 0.00in /  0mm 7 W/m2
05:20 54.5 °F /  12.5 °C 52.8 °F /  11.6 °C 30.08in /  1018.5hPa Calm   1mph /  1.6km/h 94% 0.00in /  0mm 14 W/m2
05:30 54.3 °F /  12.4 °C 52.6 °F /  11.4 °C 30.08in /  1018.5hPa Calm   2mph /  3.2km/h 94% 0.00in /  0mm 25 W/m2
05:40 54.3 °F /  12.4 °C 52.6 °F /  11.4 °C 30.08in /  1018.5hPa NW 1mph /  1.6km/h 2mph /  3.2km/h 94% 0.00in /  0mm 37 W/m2
05:50 54.1 °F /  12.3 °C 52.5 °F /  11.4 °C 30.07in /  1018.2hPa West 1mph /  1.6km/h 2mph /  3.2km/h 94% 0.00in /  0mm 54 W/m2
06:00 54.1 °F /  12.3 °C 52.7 °F /  11.5 °C 30.08in /  1018.5hPa West 2mph /  3.2km/h 5mph /  8km/h 95% 0.00in /  0mm 89 W/m2
06:10 54.5 °F /  12.5 °C 53.1 °F /  11.7 °C 30.08in /  1018.5hPa WNW 2mph /  3.2km/h 4mph /  6.4km/h 95% 0.00in /  0mm 71 W/m2
06:20 54.9 °F /  12.7 °C 53.5 °F /  11.9 °C 30.08in /  1018.5hPa Calm   2mph /  3.2km/h 95% 0.00in /  0mm 32 W/m2
06:30 55 °F /  12.8 °C 53.6 °F /  12 °C 30.09in /  1018.8hPa Calm   2mph /  3.2km/h 95% 0.00in /  0mm 37 W/m2
06:40 55.2 °F /  12.9 °C 53.8 °F /  12.1 °C 30.09in /  1018.8hPa Calm   1mph /  1.6km/h 95% 0.00in /  0mm 41 W/m2
06:50 55.6 °F /  13.1 °C 54.2 °F /  12.3 °C 30.09in /  1018.8hPa South 2mph /  3.2km/h 2mph /  3.2km/h 95% 0.00in /  0mm 32 W/m2
07:00 55.6 °F /  13.1 °C 54.2 °F /  12.3 °C 30.09in /  1018.8hPa SE 1mph /  1.6km/h 2mph /  3.2km/h 95% 0.00in /  0mm 25 W/m2
07:10 55.8 °F /  13.2 °C 54.1 °F /  12.3 °C 30.09in /  1018.8hPa Calm   2mph /  3.2km/h 94% 0.00in /  0mm 41 W/m2
07:20 55.9 °F /  13.3 °C 54.2 °F /  12.3 °C 30.09in /  1018.8hPa SSE 1mph /  1.6km/h 2mph /  3.2km/h 94% 0.00in /  0mm 43 W/m2
07:30 55.9 °F /  13.3 °C 54.2 °F /  12.3 °C 30.09in /  1018.8hPa Calm   2mph /  3.2km/h 94% 0.00in /  0mm 15 W/m2
07:40 56.2 °F /  13.4 °C 54.8 °F /  12.7 °C 30.09in /  1018.8hPa NW 2mph /  3.2km/h 3mph /  4.8km/h 95% 0.05in /  1.27mm 13 W/m2
07:50 56.3 °F /  13.5 °C 55.2 °F /  12.9 °C 30.09in /  1018.8hPa NW 1mph /  1.6km/h 3mph /  4.8km/h 96% 0.00in /  0mm 12 W/m2
08:00 56.3 °F /  13.5 °C 55.2 °F /  12.9 °C 30.09in /  1018.8hPa Calm   2mph /  3.2km/h 96% 0.00in /  0mm 59 W/m2
08:10 56.5 °F /  13.6 °C 55.4 °F /  13 °C 30.09in /  1018.8hPa Calm   2mph /  3.2km/h 96% 0.00in /  0mm 96 W/m2
08:20 56.7 °F /  13.7 °C 55.6 °F /  13.1 °C 30.09in /  1018.8hPa Calm   2mph /  3.2km/h 96% 0.06in /  1.52mm 75 W/m2
08:30 56.8 °F /  13.8 °C 56.3 °F /  13.5 °C 30.09in /  1018.8hPa NE 3mph /  4.8km/h 5mph /  8km/h 98% 0.09in /  2.29mm 75 W/m2
08:40 57 °F /  13.9 °C 56.7 °F /  13.7 °C 30.09in /  1018.8hPa Calm   5mph /  8km/h 99% 0.00in /  0mm 170 W/m2
08:50 57.4 °F /  14.1 °C 57.2 °F /  14 °C 30.10in /  1019.2hPa SW 1mph /  1.6km/h 3mph /  4.8km/h 99% 0.00in /  0mm 237 W/m2
09:00 57.8 °F /  14.3 °C 57.2 °F /  14 °C 30.09in /  1018.8hPa Calm   3mph /  4.8km/h 98% 0.00in /  0mm 194 W/m2
09:10 58.5 °F /  14.7 °C 58.2 °F /  14.6 °C 30.09in /  1018.8hPa Calm   3mph /  4.8km/h 99% 0.00in /  0mm 272 W/m2
09:20 59 °F /  15 °C 57.9 °F /  14.4 °C 30.09in /  1018.8hPa NNE 3mph /  4.8km/h 4mph /  6.4km/h 96% 0.00in /  0mm 378 W/m2
09:30 59.7 °F /  15.4 °C 58.3 °F /  14.6 °C 30.09in /  1018.8hPa NNE 1mph /  1.6km/h 4mph /  6.4km/h 95% 0.00in /  0mm 311 W/m2
09:40 60.1 °F /  15.6 °C 58.3 °F /  14.6 °C 30.09in /  1018.8hPa SE 1mph /  1.6km/h 5mph /  8km/h 94% 0.00in /  0mm 280 W/m2
09:50 60.5 °F /  15.8 °C 59.1 °F /  15.1 °C 30.09in /  1018.8hPa SW 1mph /  1.6km/h 3mph /  4.8km/h 95% 0.00in /  0mm 402 W/m2
10:00 61.2 °F /  16.2 °C 59.4 °F /  15.2 °C 30.09in /  1018.8hPa SSW 1mph /  1.6km/h 4mph /  6.4km/h 94% 0.00in /  0mm 312 W/m2
10:10 61.7 °F /  16.5 °C 60 °F /  15.6 °C 30.08in /  1018.5hPa South 1mph /  1.6km/h 3mph /  4.8km/h 94% 0.00in /  0mm 391 W/m2
10:20 62.6 °F /  17 °C 60.5 °F /  15.8 °C 30.08in /  1018.5hPa NNE 1mph /  1.6km/h 4mph /  6.4km/h 93% 0.00in /  0mm 670 W/m2
10:30 63.2 °F /  17.3 °C 60.5 °F /  15.8 °C 30.08in /  1018.5hPa NNE 2mph /  3.2km/h 5mph /  8km/h 91% 0.00in /  0mm 635 W/m2
10:40 64.4 °F /  18 °C 62.3 °F /  16.8 °C 30.07in /  1018.2hPa North 5mph /  8km/h 7mph /  11.3km/h 93% 0.00in /  0mm 568 W/m2
10:50 65.7 °F /  18.7 °C 63.6 °F /  17.6 °C 30.07in /  1018.2hPa North 1mph /  1.6km/h 6mph /  9.7km/h 93% 0.00in /  0mm 631 W/m2
11:00 66.4 °F /  19.1 °C 63.7 °F /  17.6 °C 30.07in /  1018.2hPa North 1mph /  1.6km/h 5mph /  8km/h 91% 0.00in /  0mm 531 W/m2
11:10 67.3 °F /  19.6 °C 64.6 °F /  18.1 °C 30.07in /  1018.2hPa North 1mph /  1.6km/h 5mph /  8km/h 91% 0.00in /  0mm 806 W/m2
11:20 68.4 °F /  20.2 °C 65.3 °F /  18.5 °C 30.06in /  1017.8hPa NNE 2mph /  3.2km/h 7mph /  11.3km/h 90% 0.00in /  0mm 599 W/m2
11:30 68.8 °F /  20.4 °C 65.7 °F /  18.7 °C 30.06in /  1017.8hPa NNW 3mph /  4.8km/h 8mph /  12.9km/h 90% 0.00in /  0mm 706 W/m2
Knjazevac, Serbia
Compliments of Weather Underground - 2 mb